sensor_id;sensor_type;location;lat;lon;timestamp;P1;durP1;ratioP1;P2;durP2;ratioP2
18796;SDS011;9526;52.612;13.300;2023-02-10T00:00:15;34.70;;;17.67;;
18796;SDS011;9526;52.612;13.300;2023-02-10T00:02:39;34.97;;;17.50;;
18796;SDS011;9526;52.612;13.300;2023-02-10T00:05:03;40.53;;;18.20;;
18796;SDS011;9526;52.612;13.300;2023-02-10T00:07:27;34.00;;;18.33;;
18796;SDS011;9526;52.612;13.300;2023-02-10T00:09:51;33.57;;;16.73;;
18796;SDS011;9526;52.612;13.300;2023-02-10T00:12:15;33.63;;;16.97;;
18796;SDS011;9526;52.612;13.300;2023-02-10T00:14:40;37.43;;;17.47;;
18796;SDS011;9526;52.612;13.300;2023-02-10T00:17:04;40.70;;;17.27;;
18796;SDS011;9526;52.612;13.300;2023-02-10T00:19:28;35.63;;;17.27;;
18796;SDS011;9526;52.612;13.300;2023-02-10T00:21:54;35.03;;;16.73;;
18796;SDS011;9526;52.612;13.300;2023-02-10T00:24:18;35.57;;;18.13;;
18796;SDS011;9526;52.612;13.300;2023-02-10T00:26:42;39.60;;;17.50;;
18796;SDS011;9526;52.612;13.300;2023-02-10T00:29:06;38.07;;;17.53;;
18796;SDS011;9526;52.612;13.300;2023-02-10T00:31:31;34.63;;;17.33;;
18796;SDS011;9526;52.612;13.300;2023-02-10T00:33:55;34.53;;;17.43;;
18796;SDS011;9526;52.612;13.300;2023-02-10T00:36:20;38.90;;;17.60;;
18796;SDS011;9526;52.612;13.300;2023-02-10T00:38:46;36.17;;;18.20;;
18796;SDS011;9526;52.612;13.300;2023-02-10T00:41:10;35.97;;;17.40;;
18796;SDS011;9526;52.612;13.300;2023-02-10T00:43:36;37.20;;;17.77;;
18796;SDS011;9526;52.612;13.300;2023-02-10T00:46:00;36.80;;;16.90;;
18796;SDS011;9526;52.612;13.300;2023-02-10T00:48:26;37.50;;;16.83;;
18796;SDS011;9526;52.612;13.300;2023-02-10T00:50:49;39.73;;;17.87;;
18796;SDS011;9526;52.612;13.300;2023-02-10T00:53:13;38.23;;;17.67;;
18796;SDS011;9526;52.612;13.300;2023-02-10T00:55:36;39.40;;;17.60;;
18796;SDS011;9526;52.612;13.300;2023-02-10T00:58:00;38.13;;;16.87;;
18796;SDS011;9526;52.612;13.300;2023-02-10T01:00:24;34.70;;;17.83;;
18796;SDS011;9526;52.612;13.300;2023-02-10T01:02:47;34.43;;;17.60;;
18796;SDS011;9526;52.612;13.300;2023-02-10T01:05:12;34.90;;;16.93;;
18796;SDS011;9526;52.612;13.300;2023-02-10T01:07:36;38.63;;;17.73;;
18796;SDS011;9526;52.612;13.300;2023-02-10T01:10:00;38.03;;;17.30;;
18796;SDS011;9526;52.612;13.300;2023-02-10T01:12:24;36.70;;;17.63;;
18796;SDS011;9526;52.612;13.300;2023-02-10T01:14:48;36.23;;;17.57;;
18796;SDS011;9526;52.612;13.300;2023-02-10T01:17:12;40.43;;;18.60;;
18796;SDS011;9526;52.612;13.300;2023-02-10T01:19:37;37.90;;;18.20;;
18796;SDS011;9526;52.612;13.300;2023-02-10T01:22:03;37.00;;;18.37;;
18796;SDS011;9526;52.612;13.300;2023-02-10T01:24:27;40.53;;;19.53;;
18796;SDS011;9526;52.612;13.300;2023-02-10T01:26:50;39.57;;;18.73;;
18796;SDS011;9526;52.612;13.300;2023-02-10T01:29:14;41.00;;;19.57;;
18796;SDS011;9526;52.612;13.300;2023-02-10T01:31:38;45.27;;;19.17;;
18796;SDS011;9526;52.612;13.300;2023-02-10T01:34:01;37.37;;;18.57;;
18796;SDS011;9526;52.612;13.300;2023-02-10T01:36:25;44.80;;;19.77;;
18796;SDS011;9526;52.612;13.300;2023-02-10T01:38:52;41.63;;;18.70;;
18796;SDS011;9526;52.612;13.300;2023-02-10T01:41:17;41.97;;;19.23;;
18796;SDS011;9526;52.612;13.300;2023-02-10T01:43:54;42.53;;;18.33;;
18796;SDS011;9526;52.612;13.300;2023-02-10T01:46:25;42.27;;;18.10;;
18796;SDS011;9526;52.612;13.300;2023-02-10T01:48:50;41.57;;;19.03;;
18796;SDS011;9526;52.612;13.300;2023-02-10T01:51:15;41.13;;;19.70;;
18796;SDS011;9526;52.612;13.300;2023-02-10T01:53:41;41.00;;;18.03;;
18796;SDS011;9526;52.612;13.300;2023-02-10T01:56:07;40.53;;;18.03;;
18796;SDS011;9526;52.612;13.300;2023-02-10T01:58:32;44.93;;;19.77;;
18796;SDS011;9526;52.612;13.300;2023-02-10T02:00:57;39.97;;;18.57;;
18796;SDS011;9526;52.612;13.300;2023-02-10T02:03:21;39.70;;;18.37;;
18796;SDS011;9526;52.612;13.300;2023-02-10T02:05:45;43.07;;;20.03;;
18796;SDS011;9526;52.612;13.300;2023-02-10T02:08:10;41.13;;;18.57;;
18796;SDS011;9526;52.612;13.300;2023-02-10T02:10:54;39.30;;;18.77;;
18796;SDS011;9526;52.612;13.300;2023-02-10T02:13:32;40.30;;;18.27;;
18796;SDS011;9526;52.612;13.300;2023-02-10T02:16:40;41.77;;;18.03;;
18796;SDS011;9526;52.612;13.300;2023-02-10T02:19:25;43.37;;;18.57;;
18796;SDS011;9526;52.612;13.300;2023-02-10T02:22:18;40.37;;;18.50;;
18796;SDS011;9526;52.612;13.300;2023-02-10T02:25:14;42.40;;;19.53;;
18796;SDS011;9526;52.612;13.300;2023-02-10T02:28:01;41.43;;;18.27;;
18796;SDS011;9526;52.612;13.300;2023-02-10T02:30:48;43.27;;;20.07;;
18796;SDS011;9526;52.612;13.300;2023-02-10T02:33:38;42.17;;;18.53;;
18796;SDS011;9526;52.612;13.300;2023-02-10T02:36:07;43.27;;;18.37;;
18796;SDS011;9526;52.612;13.300;2023-02-10T02:38:37;44.23;;;20.17;;
18796;SDS011;9526;52.612;13.300;2023-02-10T02:41:01;42.83;;;18.80;;
18796;SDS011;9526;52.612;13.300;2023-02-10T02:43:25;50.80;;;20.23;;
18796;SDS011;9526;52.612;13.300;2023-02-10T02:45:50;46.10;;;20.97;;
18796;SDS011;9526;52.612;13.300;2023-02-10T02:48:27;45.80;;;20.13;;
18796;SDS011;9526;52.612;13.300;2023-02-10T02:51:09;48.10;;;20.67;;
18796;SDS011;9526;52.612;13.300;2023-02-10T02:53:45;55.10;;;21.80;;
18796;SDS011;9526;52.612;13.300;2023-02-10T02:56:18;43.23;;;20.10;;
18796;SDS011;9526;52.612;13.300;2023-02-10T02:58:52;51.77;;;21.47;;
18796;SDS011;9526;52.612;13.300;2023-02-10T03:01:21;45.23;;;20.27;;
18796;SDS011;9526;52.612;13.300;2023-02-10T03:03:53;45.73;;;20.57;;
18796;SDS011;9526;52.612;13.300;2023-02-10T03:06:20;45.83;;;21.50;;
18796;SDS011;9526;52.612;13.300;2023-02-10T03:08:43;47.37;;;22.03;;
18796;SDS011;9526;52.612;13.300;2023-02-10T03:11:07;48.13;;;21.00;;
18796;SDS011;9526;52.612;13.300;2023-02-10T03:13:31;47.47;;;22.17;;
18796;SDS011;9526;52.612;13.300;2023-02-10T03:15:54;49.57;;;21.57;;
18796;SDS011;9526;52.612;13.300;2023-02-10T03:18:20;54.30;;;21.57;;
18796;SDS011;9526;52.612;13.300;2023-02-10T03:20:45;56.70;;;21.33;;
18796;SDS011;9526;52.612;13.300;2023-02-10T03:23:09;54.43;;;23.17;;
18796;SDS011;9526;52.612;13.300;2023-02-10T03:25:32;47.43;;;23.03;;
18796;SDS011;9526;52.612;13.300;2023-02-10T03:27:56;51.80;;;23.07;;
18796;SDS011;9526;52.612;13.300;2023-02-10T03:30:20;50.60;;;22.50;;
18796;SDS011;9526;52.612;13.300;2023-02-10T03:32:43;56.10;;;22.97;;
18796;SDS011;9526;52.612;13.300;2023-02-10T03:35:09;53.63;;;22.07;;
18796;SDS011;9526;52.612;13.300;2023-02-10T03:37:35;54.50;;;23.77;;
18796;SDS011;9526;52.612;13.300;2023-02-10T03:39:58;56.10;;;22.57;;
18796;SDS011;9526;52.612;13.300;2023-02-10T03:42:22;52.77;;;24.40;;
18796;SDS011;9526;52.612;13.300;2023-02-10T03:44:45;53.33;;;24.33;;
18796;SDS011;9526;52.612;13.300;2023-02-10T03:47:09;53.43;;;23.27;;
18796;SDS011;9526;52.612;13.300;2023-02-10T03:49:33;56.30;;;24.43;;
18796;SDS011;9526;52.612;13.300;2023-02-10T03:51:56;57.43;;;24.43;;
18796;SDS011;9526;52.612;13.300;2023-02-10T03:54:22;58.97;;;25.43;;
18796;SDS011;9526;52.612;13.300;2023-02-10T03:56:45;59.20;;;25.53;;
18796;SDS011;9526;52.612;13.300;2023-02-10T03:59:09;61.27;;;26.33;;
18796;SDS011;9526;52.612;13.300;2023-02-10T04:01:32;56.53;;;25.13;;
18796;SDS011;9526;52.612;13.300;2023-02-10T04:03:56;39.27;;;16.70;;
18796;SDS011;9526;52.612;13.300;2023-02-10T04:06:20;59.03;;;24.23;;
18796;SDS011;9526;52.612;13.300;2023-02-10T04:08:45;64.77;;;26.90;;
18796;SDS011;9526;52.612;13.300;2023-02-10T04:11:11;63.83;;;26.43;;
18796;SDS011;9526;52.612;13.300;2023-02-10T04:13:35;59.60;;;27.10;;
18796;SDS011;9526;52.612;13.300;2023-02-10T04:15:59;64.77;;;26.37;;
18796;SDS011;9526;52.612;13.300;2023-02-10T04:18:25;62.33;;;28.90;;
18796;SDS011;9526;52.612;13.300;2023-02-10T04:20:50;67.37;;;29.07;;
18796;SDS011;9526;52.612;13.300;2023-02-10T04:23:13;67.17;;;29.73;;
18796;SDS011;9526;52.612;13.300;2023-02-10T04:25:37;65.87;;;30.20;;
18796;SDS011;9526;52.612;13.300;2023-02-10T04:28:02;64.30;;;28.37;;
18796;SDS011;9526;52.612;13.300;2023-02-10T04:30:26;60.50;;;27.17;;
18796;SDS011;9526;52.612;13.300;2023-02-10T04:32:50;71.73;;;29.03;;
18796;SDS011;9526;52.612;13.300;2023-02-10T04:35:13;70.17;;;29.70;;
18796;SDS011;9526;52.612;13.300;2023-02-10T04:37:37;64.63;;;23.63;;
18796;SDS011;9526;52.612;13.300;2023-02-10T04:40:01;67.83;;;28.63;;
18796;SDS011;9526;52.612;13.300;2023-02-10T04:42:25;65.07;;;28.77;;
18796;SDS011;9526;52.612;13.300;2023-02-10T04:44:53;63.63;;;29.20;;
18796;SDS011;9526;52.612;13.300;2023-02-10T04:47:17;70.37;;;30.13;;
18796;SDS011;9526;52.612;13.300;2023-02-10T04:49:40;69.20;;;31.27;;
18796;SDS011;9526;52.612;13.300;2023-02-10T04:52:04;62.23;;;29.53;;
18796;SDS011;9526;52.612;13.300;2023-02-10T04:54:28;68.00;;;29.07;;
18796;SDS011;9526;52.612;13.300;2023-02-10T04:56:51;60.77;;;24.27;;
18796;SDS011;9526;52.612;13.300;2023-02-10T04:59:15;69.13;;;30.30;;
18796;SDS011;9526;52.612;13.300;2023-02-10T05:01:40;64.50;;;29.47;;
18796;SDS011;9526;52.612;13.300;2023-02-10T05:04:04;70.03;;;30.77;;
18796;SDS011;9526;52.612;13.300;2023-02-10T05:06:27;69.93;;;29.93;;
18796;SDS011;9526;52.612;13.300;2023-02-10T05:08:51;74.43;;;30.57;;
18796;SDS011;9526;52.612;13.300;2023-02-10T05:11:15;70.57;;;29.37;;
18796;SDS011;9526;52.612;13.300;2023-02-10T05:13:39;80.13;;;32.67;;
18796;SDS011;9526;52.612;13.300;2023-02-10T05:16:04;71.10;;;30.53;;
18796;SDS011;9526;52.612;13.300;2023-02-10T05:18:30;77.87;;;30.77;;
18796;SDS011;9526;52.612;13.300;2023-02-10T05:20:54;72.47;;;31.30;;
18796;SDS011;9526;52.612;13.300;2023-02-10T05:23:18;73.23;;;32.53;;
18796;SDS011;9526;52.612;13.300;2023-02-10T05:25:42;76.30;;;31.30;;
18796;SDS011;9526;52.612;13.300;2023-02-10T05:28:06;80.10;;;34.00;;
18796;SDS011;9526;52.612;13.300;2023-02-10T05:30:29;87.70;;;35.60;;
18796;SDS011;9526;52.612;13.300;2023-02-10T05:32:53;82.33;;;34.13;;
18796;SDS011;9526;52.612;13.300;2023-02-10T05:35:18;80.70;;;33.67;;
18796;SDS011;9526;52.612;13.300;2023-02-10T05:37:42;88.37;;;33.23;;
18796;SDS011;9526;52.612;13.300;2023-02-10T05:40:06;81.03;;;33.10;;
18796;SDS011;9526;52.612;13.300;2023-02-10T05:42:30;77.73;;;33.13;;
18796;SDS011;9526;52.612;13.300;2023-02-10T05:44:54;79.23;;;33.33;;
18796;SDS011;9526;52.612;13.300;2023-02-10T05:47:18;88.10;;;35.00;;
18796;SDS011;9526;52.612;13.300;2023-02-10T05:49:42;80.97;;;33.37;;
18796;SDS011;9526;52.612;13.300;2023-02-10T05:52:07;75.30;;;31.07;;
18796;SDS011;9526;52.612;13.300;2023-02-10T05:54:30;85.47;;;34.13;;
18796;SDS011;9526;52.612;13.300;2023-02-10T05:56:54;86.83;;;33.40;;
18796;SDS011;9526;52.612;13.300;2023-02-10T05:59:18;92.70;;;34.43;;
18796;SDS011;9526;52.612;13.300;2023-02-10T06:01:42;88.67;;;35.43;;
18796;SDS011;9526;52.612;13.300;2023-02-10T06:04:06;86.90;;;35.57;;
18796;SDS011;9526;52.612;13.300;2023-02-10T06:06:30;92.47;;;35.07;;
18796;SDS011;9526;52.612;13.300;2023-02-10T06:08:55;86.93;;;34.87;;
18796;SDS011;9526;52.612;13.300;2023-02-10T06:11:18;92.23;;;35.03;;
18796;SDS011;9526;52.612;13.300;2023-02-10T06:13:42;90.60;;;35.93;;
18796;SDS011;9526;52.612;13.300;2023-02-10T06:16:06;78.90;;;34.00;;
18796;SDS011;9526;52.612;13.300;2023-02-10T06:18:30;89.30;;;34.87;;
18796;SDS011;9526;52.612;13.300;2023-02-10T06:20:56;86.47;;;34.23;;
18796;SDS011;9526;52.612;13.300;2023-02-10T06:23:19;93.43;;;36.47;;
18796;SDS011;9526;52.612;13.300;2023-02-10T06:25:44;90.03;;;34.37;;
18796;SDS011;9526;52.612;13.300;2023-02-10T06:28:09;99.53;;;37.03;;
18796;SDS011;9526;52.612;13.300;2023-02-10T06:30:33;89.10;;;36.57;;
18796;SDS011;9526;52.612;13.300;2023-02-10T06:32:56;80.27;;;30.37;;
18796;SDS011;9526;52.612;13.300;2023-02-10T06:35:20;91.10;;;36.50;;
18796;SDS011;9526;52.612;13.300;2023-02-10T06:37:44;94.50;;;36.17;;
18796;SDS011;9526;52.612;13.300;2023-02-10T06:40:08;95.73;;;35.80;;
18796;SDS011;9526;52.612;13.300;2023-02-10T06:42:35;94.90;;;34.57;;
18796;SDS011;9526;52.612;13.300;2023-02-10T06:44:58;97.47;;;36.43;;
18796;SDS011;9526;52.612;13.300;2023-02-10T06:47:22;86.63;;;35.00;;
18796;SDS011;9526;52.612;13.300;2023-02-10T06:49:46;85.47;;;33.90;;
18796;SDS011;9526;52.612;13.300;2023-02-10T06:52:10;89.07;;;35.80;;
18796;SDS011;9526;52.612;13.300;2023-02-10T06:54:37;86.37;;;35.90;;
18796;SDS011;9526;52.612;13.300;2023-02-10T06:57:01;95.10;;;35.90;;
18796;SDS011;9526;52.612;13.300;2023-02-10T06:59:26;86.57;;;36.87;;
18796;SDS011;9526;52.612;13.300;2023-02-10T07:01:50;88.33;;;35.57;;
18796;SDS011;9526;52.612;13.300;2023-02-10T07:04:15;91.43;;;35.60;;
18796;SDS011;9526;52.612;13.300;2023-02-10T07:06:38;95.20;;;36.03;;
18796;SDS011;9526;52.612;13.300;2023-02-10T07:09:02;96.47;;;38.63;;
18796;SDS011;9526;52.612;13.300;2023-02-10T07:11:26;90.07;;;35.13;;
18796;SDS011;9526;52.612;13.300;2023-02-10T07:13:50;90.30;;;36.47;;
18796;SDS011;9526;52.612;13.300;2023-02-10T07:16:15;83.53;;;35.40;;
18796;SDS011;9526;52.612;13.300;2023-02-10T07:18:39;88.23;;;34.90;;
18796;SDS011;9526;52.612;13.300;2023-02-10T07:21:02;95.80;;;36.37;;
18796;SDS011;9526;52.612;13.300;2023-02-10T07:23:26;89.03;;;34.77;;
18796;SDS011;9526;52.612;13.300;2023-02-10T07:25:57;85.70;;;33.83;;
18796;SDS011;9526;52.612;13.300;2023-02-10T07:28:20;83.17;;;34.27;;
18796;SDS011;9526;52.612;13.300;2023-02-10T07:30:44;82.57;;;34.40;;
18796;SDS011;9526;52.612;13.300;2023-02-10T07:33:09;80.77;;;33.67;;
18796;SDS011;9526;52.612;13.300;2023-02-10T07:35:33;81.10;;;33.37;;
18796;SDS011;9526;52.612;13.300;2023-02-10T07:37:57;77.63;;;33.57;;
18796;SDS011;9526;52.612;13.300;2023-02-10T07:40:20;84.37;;;33.27;;
18796;SDS011;9526;52.612;13.300;2023-02-10T07:42:44;75.73;;;32.10;;
18796;SDS011;9526;52.612;13.300;2023-02-10T07:45:31;78.70;;;31.80;;
18796;SDS011;9526;52.612;13.300;2023-02-10T07:47:55;76.90;;;31.63;;
18796;SDS011;9526;52.612;13.300;2023-02-10T07:50:20;78.00;;;33.27;;
18796;SDS011;9526;52.612;13.300;2023-02-10T07:52:44;78.20;;;33.50;;
18796;SDS011;9526;52.612;13.300;2023-02-10T07:55:09;73.77;;;31.40;;
18796;SDS011;9526;52.612;13.300;2023-02-10T07:57:33;77.20;;;31.07;;
18796;SDS011;9526;52.612;13.300;2023-02-10T07:59:57;73.50;;;30.43;;
18796;SDS011;9526;52.612;13.300;2023-02-10T08:02:21;80.23;;;33.63;;
18796;SDS011;9526;52.612;13.300;2023-02-10T08:04:44;73.53;;;32.40;;
18796;SDS011;9526;52.612;13.300;2023-02-10T08:07:10;69.77;;;30.73;;
18796;SDS011;9526;52.612;13.300;2023-02-10T08:09:33;50.70;;;20.43;;
18796;SDS011;9526;52.612;13.300;2023-02-10T08:11:57;67.53;;;28.67;;
18796;SDS011;9526;52.612;13.300;2023-02-10T08:14:21;67.80;;;30.30;;
18796;SDS011;9526;52.612;13.300;2023-02-10T08:16:45;73.37;;;31.10;;
18796;SDS011;9526;52.612;13.300;2023-02-10T08:19:09;68.97;;;30.77;;
18796;SDS011;9526;52.612;13.300;2023-02-10T08:21:33;67.20;;;28.93;;
18796;SDS011;9526;52.612;13.300;2023-02-10T08:23:58;73.33;;;30.70;;
18796;SDS011;9526;52.612;13.300;2023-02-10T08:26:22;64.93;;;27.53;;
18796;SDS011;9526;52.612;13.300;2023-02-10T08:28:46;67.53;;;29.13;;
18796;SDS011;9526;52.612;13.300;2023-02-10T08:31:10;74.13;;;30.00;;
18796;SDS011;9526;52.612;13.300;2023-02-10T08:33:34;67.40;;;29.40;;
18796;SDS011;9526;52.612;13.300;2023-02-10T08:36:08;65.20;;;28.50;;
18796;SDS011;9526;52.612;13.300;2023-02-10T08:38:34;73.30;;;27.70;;
18796;SDS011;9526;52.612;13.300;2023-02-10T08:40:59;68.53;;;29.23;;
18796;SDS011;9526;52.612;13.300;2023-02-10T08:43:23;67.17;;;30.50;;
18796;SDS011;9526;52.612;13.300;2023-02-10T08:45:47;71.27;;;28.97;;
18796;SDS011;9526;52.612;13.300;2023-02-10T08:48:12;65.30;;;27.80;;
18796;SDS011;9526;52.612;13.300;2023-02-10T08:50:36;66.13;;;29.13;;
18796;SDS011;9526;52.612;13.300;2023-02-10T08:52:59;71.90;;;30.53;;
18796;SDS011;9526;52.612;13.300;2023-02-10T08:55:23;65.03;;;29.17;;
18796;SDS011;9526;52.612;13.300;2023-02-10T08:57:48;67.77;;;28.67;;
18796;SDS011;9526;52.612;13.300;2023-02-10T09:00:12;66.80;;;29.40;;
18796;SDS011;9526;52.612;13.300;2023-02-10T09:02:38;66.23;;;29.17;;
18796;SDS011;9526;52.612;13.300;2023-02-10T09:05:02;71.77;;;30.17;;
18796;SDS011;9526;52.612;13.300;2023-02-10T09:07:31;64.70;;;29.10;;
18796;SDS011;9526;52.612;13.300;2023-02-10T09:09:56;69.83;;;30.10;;
18796;SDS011;9526;52.612;13.300;2023-02-10T09:12:19;69.13;;;29.67;;
18796;SDS011;9526;52.612;13.300;2023-02-10T09:14:45;66.23;;;28.50;;
18796;SDS011;9526;52.612;13.300;2023-02-10T09:17:08;66.73;;;29.83;;
18796;SDS011;9526;52.612;13.300;2023-02-10T09:19:33;69.80;;;31.13;;
18796;SDS011;9526;52.612;13.300;2023-02-10T09:21:57;68.47;;;30.10;;
18796;SDS011;9526;52.612;13.300;2023-02-10T09:24:21;74.33;;;31.33;;
18796;SDS011;9526;52.612;13.300;2023-02-10T09:26:45;67.30;;;29.20;;
18796;SDS011;9526;52.612;13.300;2023-02-10T09:29:08;67.57;;;30.47;;
18796;SDS011;9526;52.612;13.300;2023-02-10T09:31:35;67.53;;;29.63;;
18796;SDS011;9526;52.612;13.300;2023-02-10T09:33:59;66.03;;;29.40;;
18796;SDS011;9526;52.612;13.300;2023-02-10T09:36:23;65.00;;;28.77;;
18796;SDS011;9526;52.612;13.300;2023-02-10T09:38:46;65.87;;;28.90;;
18796;SDS011;9526;52.612;13.300;2023-02-10T09:41:13;65.27;;;29.23;;
18796;SDS011;9526;52.612;13.300;2023-02-10T09:46:39;68.93;;;29.03;;
18796;SDS011;9526;52.612;13.300;2023-02-10T09:52:41;66.13;;;29.47;;
18796;SDS011;9526;52.612;13.300;2023-02-10T09:55:22;67.93;;;29.17;;
18796;SDS011;9526;52.612;13.300;2023-02-10T09:57:51;67.43;;;29.30;;
18796;SDS011;9526;52.612;13.300;2023-02-10T10:00:23;63.13;;;27.87;;
18796;SDS011;9526;52.612;13.300;2023-02-10T10:02:55;64.10;;;28.60;;
18796;SDS011;9526;52.612;13.300;2023-02-10T10:05:22;69.77;;;29.80;;
18796;SDS011;9526;52.612;13.300;2023-02-10T10:08:00;65.87;;;28.83;;
18796;SDS011;9526;52.612;13.300;2023-02-10T10:10:26;60.03;;;26.47;;
18796;SDS011;9526;52.612;13.300;2023-02-10T10:12:57;70.10;;;29.20;;
18796;SDS011;9526;52.612;13.300;2023-02-10T10:15:21;64.73;;;27.40;;
18796;SDS011;9526;52.612;13.300;2023-02-10T10:17:58;61.87;;;26.10;;
18796;SDS011;9526;52.612;13.300;2023-02-10T10:20:40;61.83;;;25.80;;
18796;SDS011;9526;52.612;13.300;2023-02-10T10:26:12;64.83;;;26.73;;
18796;SDS011;9526;52.612;13.300;2023-02-10T10:29:00;65.63;;;28.63;;
18796;SDS011;9526;52.612;13.300;2023-02-10T10:31:37;56.47;;;25.80;;
18796;SDS011;9526;52.612;13.300;2023-02-10T10:34:10;63.10;;;26.73;;
18796;SDS011;9526;52.612;13.300;2023-02-10T10:36:38;61.53;;;26.63;;
18796;SDS011;9526;52.612;13.300;2023-02-10T10:39:09;66.90;;;26.97;;
18796;SDS011;9526;52.612;13.300;2023-02-10T10:41:39;66.00;;;26.83;;
18796;SDS011;9526;52.612;13.300;2023-02-10T10:44:05;56.33;;;25.70;;
18796;SDS011;9526;52.612;13.300;2023-02-10T10:46:30;63.77;;;26.73;;
18796;SDS011;9526;52.612;13.300;2023-02-10T10:49:01;61.53;;;26.63;;
18796;SDS011;9526;52.612;13.300;2023-02-10T10:51:27;64.33;;;25.63;;
18796;SDS011;9526;52.612;13.300;2023-02-10T10:53:51;63.73;;;27.00;;
18796;SDS011;9526;52.612;13.300;2023-02-10T10:56:19;59.53;;;26.23;;
18796;SDS011;9526;52.612;13.300;2023-02-10T10:58:51;57.80;;;24.00;;
18796;SDS011;9526;52.612;13.300;2023-02-10T11:01:16;57.23;;;25.67;;
18796;SDS011;9526;52.612;13.300;2023-02-10T11:03:41;60.67;;;25.20;;
18796;SDS011;9526;52.612;13.300;2023-02-10T11:06:05;55.83;;;24.47;;
18796;SDS011;9526;52.612;13.300;2023-02-10T11:08:34;56.83;;;24.10;;
18796;SDS011;9526;52.612;13.300;2023-02-10T11:11:04;53.53;;;22.53;;
18796;SDS011;9526;52.612;13.300;2023-02-10T11:13:31;50.40;;;23.87;;
18796;SDS011;9526;52.612;13.300;2023-02-10T11:15:57;50.13;;;23.13;;
18796;SDS011;9526;52.612;13.300;2023-02-10T11:18:24;49.73;;;23.00;;
18796;SDS011;9526;52.612;13.300;2023-02-10T11:20:52;49.77;;;24.07;;
18796;SDS011;9526;52.612;13.300;2023-02-10T11:23:17;50.70;;;24.03;;
18796;SDS011;9526;52.612;13.300;2023-02-10T11:25:45;61.73;;;25.10;;
18796;SDS011;9526;52.612;13.300;2023-02-10T11:28:16;52.07;;;23.00;;
18796;SDS011;9526;52.612;13.300;2023-02-10T11:30:42;50.25;;;23.48;;
18796;SDS011;9526;52.612;13.300;2023-02-10T11:33:16;49.37;;;24.17;;
18796;SDS011;9526;52.612;13.300;2023-02-10T11:35:46;52.47;;;23.73;;
18796;SDS011;9526;52.612;13.300;2023-02-10T11:38:14;54.23;;;23.37;;
18796;SDS011;9526;52.612;13.300;2023-02-10T11:40:49;54.33;;;23.63;;
18796;SDS011;9526;52.612;13.300;2023-02-10T11:43:14;52.63;;;24.63;;
18796;SDS011;9526;52.612;13.300;2023-02-10T11:45:39;57.45;;;24.92;;
18796;SDS011;9526;52.612;13.300;2023-02-10T11:48:19;61.50;;;25.88;;
18796;SDS011;9526;52.612;13.300;2023-02-10T11:50:44;55.90;;;25.03;;
18796;SDS011;9526;52.612;13.300;2023-02-10T11:53:10;55.05;;;24.73;;
18796;SDS011;9526;52.612;13.300;2023-02-10T11:55:46;55.30;;;24.83;;
18796;SDS011;9526;52.612;13.300;2023-02-10T11:58:22;54.30;;;24.23;;
18796;SDS011;9526;52.612;13.300;2023-02-10T12:01:22;52.43;;;24.20;;
18796;SDS011;9526;52.612;13.300;2023-02-10T12:04:00;63.28;;;24.25;;
18796;SDS011;9526;52.612;13.300;2023-02-10T12:06:28;52.87;;;23.13;;
18796;SDS011;9526;52.612;13.300;2023-02-10T12:09:00;54.23;;;24.70;;
18796;SDS011;9526;52.612;13.300;2023-02-10T12:11:34;56.83;;;23.40;;
18796;SDS011;9526;52.612;13.300;2023-02-10T12:14:06;51.13;;;22.17;;
18796;SDS011;9526;52.612;13.300;2023-02-10T12:16:56;57.93;;;25.07;;
18796;SDS011;9526;52.612;13.300;2023-02-10T12:19:29;49.80;;;22.55;;
18796;SDS011;9526;52.612;13.300;2023-02-10T12:22:03;51.07;;;23.70;;
18796;SDS011;9526;52.612;13.300;2023-02-10T12:24:53;56.15;;;23.40;;
18796;SDS011;9526;52.612;13.300;2023-02-10T12:27:37;52.50;;;24.03;;
18796;SDS011;9526;52.612;13.300;2023-02-10T12:30:15;52.05;;;23.63;;
18796;SDS011;9526;52.612;13.300;2023-02-10T12:32:54;49.47;;;22.40;;
18796;SDS011;9526;52.612;13.300;2023-02-10T12:35:35;47.97;;;21.37;;
18796;SDS011;9526;52.612;13.300;2023-02-10T12:38:15;46.70;;;21.73;;
18796;SDS011;9526;52.612;13.300;2023-02-10T12:41:01;49.53;;;21.93;;
18796;SDS011;9526;52.612;13.300;2023-02-10T12:43:41;53.30;;;21.27;;
18796;SDS011;9526;52.612;13.300;2023-02-10T12:46:23;54.60;;;22.57;;
18796;SDS011;9526;52.612;13.300;2023-02-10T12:49:05;58.72;;;25.02;;
18796;SDS011;9526;52.612;13.300;2023-02-10T12:51:49;51.75;;;22.40;;
18796;SDS011;9526;52.612;13.300;2023-02-10T12:54:24;54.58;;;22.38;;
18796;SDS011;9526;52.612;13.300;2023-02-10T12:57:05;52.40;;;22.77;;
18796;SDS011;9526;52.612;13.300;2023-02-10T12:59:35;52.83;;;23.58;;
18796;SDS011;9526;52.612;13.300;2023-02-10T13:02:10;48.17;;;22.63;;
18796;SDS011;9526;52.612;13.300;2023-02-10T13:04:39;49.28;;;22.58;;
18796;SDS011;9526;52.612;13.300;2023-02-10T13:07:08;49.63;;;22.67;;
18796;SDS011;9526;52.612;13.300;2023-02-10T13:09:41;54.03;;;23.10;;
18796;SDS011;9526;52.612;13.300;2023-02-10T13:12:12;50.88;;;21.42;;
18796;SDS011;9526;52.612;13.300;2023-02-10T13:14:42;49.25;;;22.77;;
18796;SDS011;9526;52.612;13.300;2023-02-10T13:17:09;47.20;;;21.93;;
18796;SDS011;9526;52.612;13.300;2023-02-10T13:19:36;47.07;;;21.57;;
18796;SDS011;9526;52.612;13.300;2023-02-10T13:22:10;52.50;;;22.77;;
18796;SDS011;9526;52.612;13.300;2023-02-10T13:24:44;47.20;;;22.10;;
18796;SDS011;9526;52.612;13.300;2023-02-10T13:27:23;48.10;;;21.70;;
18796;SDS011;9526;52.612;13.300;2023-02-10T13:30:01;46.05;;;21.10;;
18796;SDS011;9526;52.612;13.300;2023-02-10T13:32:47;48.70;;;22.27;;
18796;SDS011;9526;52.612;13.300;2023-02-10T13:35:22;50.17;;;20.77;;
18796;SDS011;9526;52.612;13.300;2023-02-10T13:37:48;48.10;;;21.37;;
18796;SDS011;9526;52.612;13.300;2023-02-10T13:40:16;42.83;;;19.77;;
18796;SDS011;9526;52.612;13.300;2023-02-10T13:42:47;43.53;;;20.10;;
18796;SDS011;9526;52.612;13.300;2023-02-10T13:45:16;47.40;;;19.93;;
18796;SDS011;9526;52.612;13.300;2023-02-10T13:47:47;44.63;;;20.37;;
18796;SDS011;9526;52.612;13.300;2023-02-10T13:50:18;41.73;;;19.00;;
18796;SDS011;9526;52.612;13.300;2023-02-10T13:52:51;48.70;;;21.03;;
18796;SDS011;9526;52.612;13.300;2023-02-10T13:55:24;50.73;;;21.10;;
18796;SDS011;9526;52.612;13.300;2023-02-10T14:00:55;49.30;;;20.50;;
18796;SDS011;9526;52.612;13.300;2023-02-10T14:03:20;46.80;;;20.07;;
18796;SDS011;9526;52.612;13.300;2023-02-10T14:05:51;47.90;;;20.50;;
18796;SDS011;9526;52.612;13.300;2023-02-10T14:08:25;49.80;;;21.38;;
18796;SDS011;9526;52.612;13.300;2023-02-10T14:10:55;52.33;;;20.10;;
18796;SDS011;9526;52.612;13.300;2023-02-10T14:13:23;51.33;;;22.05;;
18796;SDS011;9526;52.612;13.300;2023-02-10T14:15:56;49.87;;;20.10;;
18796;SDS011;9526;52.612;13.300;2023-02-10T14:18:23;50.13;;;20.83;;
18796;SDS011;9526;52.612;13.300;2023-02-10T14:20:54;52.30;;;22.37;;
18796;SDS011;9526;52.612;13.300;2023-02-10T14:23:19;54.27;;;21.20;;
18796;SDS011;9526;52.612;13.300;2023-02-10T14:25:45;46.75;;;21.48;;
18796;SDS011;9526;52.612;13.300;2023-02-10T14:28:20;47.53;;;22.90;;
18796;SDS011;9526;52.612;13.300;2023-02-10T14:30:50;48.83;;;21.88;;
18796;SDS011;9526;52.612;13.300;2023-02-10T14:33:19;52.73;;;22.57;;
18796;SDS011;9526;52.612;13.300;2023-02-10T14:35:49;53.40;;;24.48;;